Swan Valley, Montana
Current Conditions -  °F | °C
As of 2:53 PM on Thursday 23 Oct 2014 (Local Time) from KMSO Reporting Station
Few Clouds Few Clouds  
Wind Chill: 61°   Ceiling: Unl
Heat Index: 61°   Visibility: 10mi
Dew Point: 41°   Wind: 3mph
Humidity: 48%   Direction: NA
Pressure: 29.85"   Gusts: NA
Location:  47.4646°N, 113.701°W
Report Text: KMSO 232053Z AUTO VRB03KT 10SM FEW085 16/05 A2985 RMK AO2 SLP099 T01610050 58015 TSNO
Loading
Personal Weather Stations






























Interactive Weather Map
Tropical Storm Tracking
New forecast layout! Learn more

10-Day Weather Forecast

Advertisements
Track Severe Weather on mobile